Strasbourg, Canada
Current Conditions -  °F | °C
As of 12:00 PM on Friday 21 Nov 2014 (Local Time) from CYQR Reporting Station
Broken Clouds Broken Clouds  
Wind Chill: 28°   Ceiling: 18000
Heat Index: 37°   Visibility: 15mi
Dew Point: 30°   Wind: 16mph
Humidity: 75%   Direction: 280°W
Pressure: 29.5"   Gusts: 22mph
Location:  51.07°N, 104.95°W
Report Text: CYQR 211800Z 28014G19KT 15SM SCT100 BKN180 BKN250 03/M01 A2950 RMK AC3AC3CI1 SLP019
Loading
Personal Weather Stations






























Interactive Weather Map New forecast layout! Learn more

10-Day Weather Forecast

Advertisements
Track Severe Weather on mobile